AirNav   Air Wisconsin Up To $57,000 Bonus
 
 459 users online  

1PP Painting Planes Airport
Stilwell, Oklahoma, USA

GOING TO STILWELL?


FAA INFORMATION EFFECTIVE 17 JUNE 2021

Location

FAA Identifier: 1PP
Lat/Long: 35-45-25.8650N 094-38-59.4850W
35-45.431083N 094-38.991417W
35.7571847,-94.6498569
(estimated)
Elevation: 1084 ft. / 330 m (estimated)
From city: 3 miles SSW of STILWELL, OK
Time zone: UTC -5 (UTC -6 during Standard Time)
Zip code: 74960

Airport Operations

Airport use: Open to the public
Activation date: 10/2019
Control tower: no
ARTCC: MEMPHIS CENTER
FSS: MC ALESTER FLIGHT SERVICE STATION
NOTAMs facility: MLC (NOTAM-D service not available)
Attendance: 
Segmented circle: no

Airport Communications

CTAF: 122.9

Nearby radio navigation aids

VOR radial/distance  VOR name  Freq  Var
FSMr313/28.8FORT SMITH VORTAC110.4007E
RZCr217/39.0RAZORBACK VORTAC116.4004E

 
NDB name  Hdg/Dist  Freq  Var  ID
SILOAM SPRINGS193/27.128404ESLG ... .-.. --.

Airport Services

Runway Information

Runway 17/35

Dimensions: 4208 x 60 ft. / 1283 x 18 m
Surface: asphalt, in poor condition
CRACKS IN RWY.
Runway edge markings: RWY NUMBERS FADED.
RUNWAY 17  RUNWAY 35
Latitude: 35-45.777833N35-45.084333N
Longitude: 094-38.989667W094-38.993167W
Elevation: 1084.0 ft.1084.0 ft.
Traffic pattern: leftleft
Markings: numbers only, in poor conditionnumbers only, in poor condition
Touchdown point: yes, no lightsyes, no lights

Airport Ownership and Management from official FAA records

Ownership: Privately-owned
Owner: CHEROKEE NATION
PO BOX 948
TAHLEQUAH, OK 74465
Phone 918-525-2766
Manager: LUKE NICHOLSON
2996 S STATE HWY 217
BOONEVILLE, AR 72927
Phone 903-277-7445

Airport Operational Statistics

Aircraft based on the field: 1
Single engine airplanes: 1
    

Additional Remarks

AIRPORT DESIRES CHARTING.

Instrument Procedures

There are no published instrument procedures at 1PP.

Some nearby airports with instrument procedures:

KTQH - Tahlequah Municipal Airport (20 nm NW)
KJSV - Sallisaw Municipal Airport (21 nm S)
KSLG - Smith Field Airport (27 nm N)
KFYV - Drake Field Airport (28 nm NE)
KFSM - Fort Smith Regional Airport (29 nm SE)
 
Loc | Ops | Rwys | IFR | FBO | Links
Com | Nav | Svcs | Stats | Notes
Aerial photo
WARNING: Photo may not be current or correct
Aerial photo of 1PP (Painting Planes Airport)
Taken in December 2019
looking north.

Do you have a better or more recent aerial photo of Painting Planes Airport that you would like to share? If so, please send us your photo.

 
Airport distance calculator
Flying to Painting Planes Airport? Find the distance to fly.

From to 1PP

Sunrise and sunset
Times for 19-Jun-2021
 Local
(UTC-5)
 Zulu
(UTC)
Morning civil twilight05:3310:33
Sunrise06:0311:03
Sunset20:3601:36
Evening civil twilight21:0702:07

Current date and time
Zulu (UTC)  19-Jun-2021 09:51:36
Local (UTC-5)  19-Jun-2021 04:51:36
 
METAR
KTQH 
20nm NW 
181655Z AUTO 22008KT 10SM CLR 31/22 A2999 RMK AO2
KJSV 
21nm S 
190915Z AUTO 00000KT 5SM CLR 21/21 A2989 RMK AO2 PWINO
KSLG 
28nm N 
190856Z AUTO 18005KT 10SM CLR 22/21 A2992 RMK AO2 SLP120 T02170211 TSNO
KFYV 
28nm NE 
190853Z AUTO 00000KT 8SM CLR 21/20 A2992 RMK AO2 SLP114 T02110200 56009
KFSM 
29nm SE 
190853Z AUTO 00000KT 10SM CLR 23/20 A2987 RMK AO2 SLP110 T02280200 58011
KGZL 
35nm SW 
190915Z AUTO 00000KT 5SM BR 20/20 A2988 RMK AO2
KMKO 
36nm W 
190920Z AUTO 14003KT 2SM BR 21/21 A2988 RMK AO2 T02110211 $
KASG 
36nm NE 
190148Z 17006KT 10SM CLR 28/25 A2995
KXNA 
36nm NE 
190853Z AUTO 20004KT 10SM CLR 23/21 A2992 RMK AO2 SLP112 T02280211 56012
TAF
KFYV 
28nm NE 
190520Z 1906/2006 17004KT P6SM SKC FM191500 20007KT P6SM SKC
KFSM 
29nm SE 
190520Z 1906/2006 09003KT P6SM SKC FM191800 18007KT P6SM FEW250 FM200200 13003KT P6SM FEW250
NOTAMs
Click for the latest NOTAMs
NOTAMs are issued by the DoD/FAA and will open in a separate window not controlled by AirNav.

 

 
 

Would you like to see your business listed on this page?

 If your business provides an interesting product or service to pilots, flight crews, aircraft, or users of the Painting Planes Airport, you should consider listing it here.  To start the listing process, click on the button below
 
Add a business
 

Other Pages about Painting Planes Airport

Update a link
 
Copyright © AirNav, LLC. All rights reserved. Privacy Policy  Contact